Time;durP1;ratioP1;P1;durP2;ratioP2;P2;SDS_P1;SDS_P2;PMS_P1;PMS_P2;Temp;Humidity;BMP_temperature;BMP_pressure;BME280_temperature;BME280_humidity;BME280_pressure;Samples;Min_cycle;Max_cycle;Signal;HPM_P1;HPM_P2
2023/08/27 00:00:08;;;;;;;3.72;0.47;;;;;;;14.07;100.00;100316.94;5014665;28;20037;-87
2023/08/27 00:02:42;;;;;;;2.65;0.35;;;;;;;14.02;100.00;100324.59;5029677;28;20424;-87
2023/08/27 00:05:09;;;;;;;1.48;0.40;;;;;;;13.98;100.00;100317.97;5039901;28;20032;-87
2023/08/27 00:07:35;;;;;;;4.63;0.40;;;;;;;13.87;100.00;100312.00;5043965;28;20033;-87
2023/08/27 00:10:01;;;;;;;2.78;0.70;;;;;;;13.86;100.00;100310.34;5030784;28;20381;-86
2023/08/27 00:12:27;;;;;;;3.03;0.70;;;;;;;13.87;100.00;100313.84;5044906;28;20044;-87
2023/08/27 00:14:53;;;;;;;1.50;0.30;;;;;;;13.88;100.00;100323.47;5030257;28;20036;-87
2023/08/27 00:17:19;;;;;;;2.25;0.30;;;;;;;13.86;100.00;100323.63;5040952;28;20036;-87
2023/08/27 00:19:45;;;;;;;4.60;0.40;;;;;;;13.85;100.00;100329.94;5013245;28;20157;-87
2023/08/27 00:22:11;;;;;;;4.13;0.30;;;;;;;13.86;100.00;100325.44;5031994;28;20072;-87
2023/08/27 00:24:38;;;;;;;2.35;0.35;;;;;;;13.83;100.00;100317.81;5032245;28;20619;-87
2023/08/27 00:27:05;;;;;;;1.60;0.20;;;;;;;13.86;100.00;100325.44;5049078;28;20045;-87
2023/08/27 00:29:32;;;;;;;2.30;0.50;;;;;;;13.86;100.00;100328.09;5046375;28;20116;-87
2023/08/27 00:31:58;;;;;;;3.80;0.60;;;;;;;13.82;100.00;100324.13;4995177;28;20054;-88
2023/08/27 00:34:32;;;;;;;3.33;0.50;;;;;;;13.83;100.00;100318.66;5049165;28;20051;-87
2023/08/27 00:37:00;;;;;;;11.60;0.80;;;;;;;13.83;100.00;100323.13;5046997;28;20031;-87
2023/08/27 00:39:26;;;;;;;3.03;0.52;;;;;;;13.79;100.00;100324.47;5015941;28;20060;-86
2023/08/27 00:41:53;;;;;;;1.35;0.43;;;;;;;13.79;100.00;100314.69;5046795;28;20037;-87
2023/08/27 00:44:20;;;;;;;2.70;0.20;;;;;;;13.74;100.00;100312.50;5049343;28;20094;-88
2023/08/27 00:46:47;;;;;;;1.55;0.50;;;;;;;13.76;100.00;100304.41;5064220;28;20029;-88
2023/08/27 00:49:15;;;;;;;2.00;0.43;;;;;;;13.78;100.00;100299.72;5005268;28;20037;-86
2023/08/27 00:51:42;;;;;;;5.05;1.08;;;;;;;13.80;100.00;100299.56;5030874;28;20035;-86
2023/08/27 00:54:08;;;;;;;2.60;0.40;;;;;;;13.83;100.00;100308.03;5026294;28;20029;-86
2023/08/27 00:56:34;;;;;;;3.47;0.47;;;;;;;13.82;100.00;100308.19;4990260;28;20041;-86
2023/08/27 00:59:01;;;;;;;3.22;0.47;;;;;;;13.82;100.00;100310.84;5044173;28;20103;-87
2023/08/27 01:01:29;;;;;;;2.50;0.35;;;;;;;13.74;100.00;100306.38;5040378;28;20045;-87
2023/08/27 01:03:54;;;;;;;2.50;0.40;;;;;;;13.75;100.00;100310.69;5029716;28;20029;-87
2023/08/27 01:06:20;;;;;;;4.35;0.40;;;;;;;13.75;100.00;100316.84;5048186;28;20025;-87
2023/08/27 01:08:56;;;;;;;3.65;0.50;;;;;;;13.77;100.00;100312.19;5043755;28;20513;-86
2023/08/27 01:11:24;;;;;;;3.83;0.40;;;;;;;13.80;100.00;100296.91;5009450;28;20453;-87
2023/08/27 01:13:54;;;;;;;1.48;0.35;;;;;;;13.80;100.00;100292.44;5018332;28;20057;-87
2023/08/27 01:16:22;;;;;;;2.35;0.35;;;;;;;13.79;100.00;100298.75;5006750;28;20473;-87
2023/08/27 01:18:51;;;;;;;1.80;0.40;;;;;;;13.84;100.00;100303.56;5011717;28;20038;-86
2023/08/27 01:21:21;;;;;;;2.45;0.20;;;;;;;13.83;100.00;100292.09;5008835;28;20479;-87
2023/08/27 01:23:47;;;;;;;2.58;0.55;;;;;;;13.82;100.00;100294.91;5011424;28;20061;-86
2023/08/27 01:26:31;;;;;;;2.30;0.32;;;;;;;13.82;100.00;100295.75;5043425;28;20029;-86
2023/08/27 01:29:13;;;;;;;2.10;0.30;;;;;;;13.79;100.00;100298.75;4988108;28;20096;-87
2023/08/27 01:31:47;;;;;;;3.25;0.50;;;;;;;13.77;100.00;100309.53;5004866;28;20033;-87
2023/08/27 01:34:14;;;;;;;1.38;0.30;;;;;;;13.70;100.00;100313.00;5010428;28;20395;-87
2023/08/27 01:36:40;;;;;;;0.88;0.25;;;;;;;13.68;100.00;100313.19;5014128;28;20040;-87
2023/08/27 01:39:11;;;;;;;2.95;0.35;;;;;;;13.68;100.00;100315.84;5019109;28;20091;-86
2023/08/27 01:41:37;;;;;;;1.52;0.40;;;;;;;13.63;100.00;100318.19;5031838;28;20036;-86
2023/08/27 01:44:03;;;;;;;0.63;0.25;;;;;;;13.57;100.00;100310.91;4999656;28;20037;-86
2023/08/27 01:46:29;;;;;;;3.03;0.20;;;;;;;13.55;100.00;100318.19;5033573;28;20036;-86
2023/08/27 01:48:55;;;;;;;0.65;0.32;;;;;;;13.55;100.00;100328.81;5003713;28;20049;-87
2023/08/27 01:51:20;;;;;;;2.53;0.20;;;;;;;13.49;100.00;100328.44;4986522;28;20044;-87
2023/08/27 01:53:46;;;;;;;0.98;0.15;;;;;;;13.49;100.00;100317.00;5012391;28;20568;-86
2023/08/27 01:56:12;;;;;;;4.90;0.30;;;;;;;13.55;100.00;100318.19;5001616;28;20470;-87
2023/08/27 01:58:38;;;;;;;1.10;0.20;;;;;;;13.55;100.00;100315.53;5024992;28;20044;-88
2023/08/27 02:01:04;;;;;;;0.93;0.20;;;;;;;13.56;100.00;100326.00;5032076;28;20393;-84
2023/08/27 02:03:29;;;;;;;1.90;0.28;;;;;;;13.49;100.00;100319.66;5043520;28;20393;-85
2023/08/27 02:05:55;;;;;;;0.75;0.30;;;;;;;13.46;100.00;100315.50;5018486;28;20033;-86
2023/08/27 02:08:21;;;;;;;1.13;0.22;;;;;;;13.43;100.00;100312.34;5031421;28;20054;-87
2023/08/27 02:10:50;;;;;;;0.30;0.20;;;;;;;13.48;100.00;100316.16;5052626;28;20433;-86
2023/08/27 02:13:16;;;;;;;1.05;0.20;;;;;;;13.48;100.00;100321.47;5012166;28;20501;-87
2023/08/27 02:15:43;;;;;;;1.17;0.35;;;;;;;13.48;100.00;100318.00;5015460;28;20041;-86
2023/08/27 02:18:09;;;;;;;2.83;0.22;;;;;;;13.45;100.00;100316.50;5025383;28;20036;-88
2023/08/27 02:20:35;;;;;;;2.55;0.30;;;;;;;13.47;100.00;100327.78;4999799;28;20077;-87
2023/08/27 02:23:01;;;;;;;0.65;0.32;;;;;;;13.47;100.00;100319.00;5013439;28;20124;-86
2023/08/27 02:25:27;;;;;;;0.43;0.17;;;;;;;13.48;100.00;100312.69;5014305;28;20125;-87
2023/08/27 02:27:53;;;;;;;1.15;0.30;;;;;;;13.51;100.00;100302.59;5046976;28;20025;-86
2023/08/27 02:30:19;;;;;;;0.77;0.10;;;;;;;13.55;100.00;100308.41;4999253;28;20042;-87
2023/08/27 02:32:45;;;;;;;2.05;0.28;;;;;;;13.56;100.00;100304.75;5030868;28;20078;-87
2023/08/27 02:35:11;;;;;;;0.75;0.40;;;;;;;13.57;100.00;100311.72;5013884;28;20163;-87
2023/08/27 02:37:37;;;;;;;1.08;0.30;;;;;;;13.55;100.00;100312.88;4999455;28;20037;-87
2023/08/27 02:40:03;;;;;;;0.60;0.22;;;;;;;13.53;100.00;100305.09;5012114;28;20040;-87
2023/08/27 02:42:28;;;;;;;0.80;0.22;;;;;;;13.51;100.00;100305.25;5006672;28;20033;-87
2023/08/27 02:44:54;;;;;;;2.97;0.30;;;;;;;13.47;100.00;100300.41;5018741;28;20032;-87
2023/08/27 02:47:21;;;;;;;2.30;0.30;;;;;;;13.40;100.00;100310.84;5038379;28;20646;-87
2023/08/27 02:49:47;;;;;;;3.28;0.40;;;;;;;13.38;100.00;100303.06;5034544;28;20639;-86
2023/08/27 02:52:12;;;;;;;3.30;0.32;;;;;;;13.35;100.00;100303.41;4984158;28;20041;-87
2023/08/27 02:54:38;;;;;;;2.15;0.28;;;;;;;13.33;100.00;100302.72;5030201;28;20037;-87
2023/08/27 02:57:04;;;;;;;4.47;0.30;;;;;;;13.33;100.00;100301.91;5028915;28;20398;-88
2023/08/27 02:59:30;;;;;;;1.75;0.30;;;;;;;13.34;100.00;100306.22;5031926;28;20037;-88
2023/08/27 03:01:56;;;;;;;4.55;1.10;;;;;;;13.32;100.00;100297.59;5014197;28;20037;-87
2023/08/27 03:04:21;;;;;;;2.25;0.50;;;;;;;13.33;100.00;100294.75;5018082;28;20033;-87
2023/08/27 03:06:47;;;;;;;5.28;0.55;;;;;;;13.31;100.00;100298.59;5007330;28;20045;-88
2023/08/27 03:09:13;;;;;;;3.30;0.30;;;;;;;13.28;100.00;100291.78;5039212;28;20397;-86
2023/08/27 03:11:38;;;;;;;1.48;0.32;;;;;;;13.24;100.00;100287.78;5041653;28;20090;-87
2023/08/27 03:14:04;;;;;;;7.40;0.40;;;;;;;13.24;100.00;100291.28;5030787;28;20103;-86
2023/08/27 03:16:30;;;;;;;1.40;0.22;;;;;;;13.26;100.00;100291.97;5045681;28;20037;-87
2023/08/27 03:18:56;;;;;;;5.35;0.30;;;;;;;13.25;100.00;100292.94;5051274;28;20025;-87
2023/08/27 03:21:21;;;;;;;1.90;0.65;;;;;;;13.29;100.00;100293.44;5063972;28;20567;-87
2023/08/27 03:23:47;;;;;;;2.25;0.30;;;;;;;13.26;100.00;100291.97;5016599;28;20047;-88
2023/08/27 03:26:13;;;;;;;2.83;0.93;;;;;;;13.29;100.00;100290.78;5028777;28;20033;-86
2023/08/27 03:28:39;;;;;;;7.50;0.60;;;;;;;13.26;100.00;100289.31;5028827;28;20123;-88
2023/08/27 03:31:05;;;;;;;2.03;0.50;;;;;;;13.27;100.00;100290.97;5034597;28;20490;-86
2023/08/27 03:33:31;;;;;;;3.72;0.57;;;;;;;13.28;100.00;100286.50;5032830;28;20052;-88
2023/08/27 03:35:58;;;;;;;1.42;0.40;;;;;;;13.30;100.00;100283.66;5006327;28;20037;-86
2023/08/27 03:38:24;;;;;;;2.50;0.70;;;;;;;13.31;100.00;100275.53;5035129;28;20101;-87
2023/08/27 03:40:52;;;;;;;3.92;0.40;;;;;;;13.31;100.00;100277.34;5033406;28;20036;-87
2023/08/27 03:43:18;;;;;;;4.45;0.40;;;;;;;13.27;100.00;100266.22;5031897;28;20037;-87
2023/08/27 03:45:44;;;;;;;4.28;0.57;;;;;;;13.25;100.00;100261.09;5037360;28;20032;-86
2023/08/27 03:48:10;;;;;;;5.93;0.50;;;;;;;13.24;100.00;100256.78;5021518;28;20041;-88
2023/08/27 03:50:36;;;;;;;4.00;0.45;;;;;;;13.25;100.00;100253.13;5030444;28;20052;-86
2023/08/27 03:53:04;;;;;;;2.13;0.40;;;;;;;13.23;100.00;100259.59;5046885;28;20052;-88
2023/08/27 03:55:29;;;;;;;1.98;0.50;;;;;;;13.21;100.00;100256.28;5045426;28;20030;-87
2023/08/27 03:57:56;;;;;;;3.00;0.75;;;;;;;13.21;100.00;100249.16;5032540;28;20044;-86
2023/08/27 04:00:22;;;;;;;1.38;0.50;;;;;;;13.22;100.00;100253.47;5032749;28;20071;-87
2023/08/27 04:02:49;;;;;;;2.05;0.40;;;;;;;13.23;100.00;100252.47;5014316;28;20427;-87
2023/08/27 04:05:15;;;;;;;4.65;0.50;;;;;;;13.19;100.00;100250.31;5039280;28;20033;-86
2023/08/27 04:07:40;;;;;;;1.80;0.45;;;;;;;13.20;100.00;100247.50;5031887;28;20045;-87
2023/08/27 04:10:06;;;;;;;2.95;0.60;;;;;;;13.21;100.00;100243.84;5013202;28;20103;-87
2023/08/27 04:12:33;;;;;;;5.05;0.70;;;;;;;13.21;100.00;100243.00;5033082;28;20032;-88
2023/08/27 04:14:58;;;;;;;9.15;0.85;;;;;;;13.19;100.00;100253.78;5033884;28;20073;-87
2023/08/27 04:17:24;;;;;;;3.50;0.88;;;;;;;13.18;100.00;100249.50;5022116;28;20604;-88
2023/08/27 04:19:52;;;;;;;5.70;0.82;;;;;;;13.18;100.00;100248.66;5043107;28;20406;-87
2023/08/27 04:22:18;;;;;;;5.47;0.50;;;;;;;13.14;100.00;100243.69;5027747;28;20059;-89
2023/08/27 04:24:44;;;;;;;7.40;0.77;;;;;;;13.12;100.00;100250.97;5033328;28;20075;-87
2023/08/27 04:27:10;;;;;;;4.30;0.55;;;;;;;13.11;100.00;100251.13;5064423;28;20040;-88
2023/08/27 04:29:36;;;;;;;7.72;0.82;;;;;;;13.11;100.00;100241.34;5049369;28;20043;-86
2023/08/27 04:32:03;;;;;;;4.95;0.57;;;;;;;13.12;100.00;100245.66;5031510;28;20473;-87
2023/08/27 04:34:29;;;;;;;4.28;0.50;;;;;;;13.15;100.00;100244.53;5049732;28;20081;-87
2023/08/27 04:36:58;;;;;;;4.63;0.70;;;;;;;13.17;100.00;100245.16;5038182;28;20037;-87
2023/08/27 04:39:24;;;;;;;11.13;0.82;;;;;;;13.15;100.00;100242.69;5039305;28;20041;-88
2023/08/27 04:41:49;;;;;;;5.30;0.85;;;;;;;13.17;100.00;100244.34;5015080;28;20370;-87
2023/08/27 04:44:15;;;;;;;4.55;0.50;;;;;;;13.17;100.00;100245.16;5048843;28;20397;-86
2023/08/27 04:46:41;;;;;;;4.65;0.60;;;;;;;13.20;100.00;100251.97;5065300;28;20036;-86
2023/08/27 04:49:06;;;;;;;2.40;0.65;;;;;;;13.21;100.00;100243.00;5049175;28;20036;-87
2023/08/27 04:51:32;;;;;;;1.52;0.40;;;;;;;13.22;100.00;100244.69;5065778;28;20103;-87
2023/08/27 04:53:58;;;;;;;3.92;0.70;;;;;;;13.20;100.00;100239.56;5032734;28;20714;-87
2023/08/27 04:56:24;;;;;;;2.13;0.50;;;;;;;13.18;100.00;100238.03;5041877;28;20451;-86
2023/08/27 04:58:49;;;;;;;5.78;1.00;;;;;;;13.16;100.00;100235.56;5036758;28;20033;-87
2023/08/27 05:01:15;;;;;;;3.22;0.52;;;;;;;13.15;100.00;100232.06;5045779;28;20037;-87
2023/08/27 05:03:41;;;;;;;3.17;0.52;;;;;;;13.15;100.00;100232.06;5039612;28;20032;-86
2023/08/27 05:06:07;;;;;;;3.70;0.60;;;;;;;13.13;100.00;100234.06;5016272;28;20040;-88
2023/08/27 05:08:33;;;;;;;3.47;0.60;;;;;;;13.12;100.00;100234.25;5043692;28;20050;-87
2023/08/27 05:10:59;;;;;;;5.72;0.52;;;;;;;13.11;100.00;100237.88;5028962;28;20037;-86
2023/08/27 05:13:25;;;;;;;3.05;0.47;;;;;;;13.08;100.00;100232.91;5029632;28;20100;-89
2023/08/27 05:15:52;;;;;;;2.72;0.50;;;;;;;13.03;100.00;100230.75;5046187;28;20110;-87
2023/08/27 05:18:19;;;;;;;4.75;0.50;;;;;;;12.97;100.00;100239.34;5044706;28;20045;-88
2023/08/27 05:20:47;;;;;;;3.97;0.77;;;;;;;12.94;100.00;100234.38;5037329;28;20504;-86
2023/08/27 05:23:13;;;;;;;4.05;0.60;;;;;;;12.93;100.00;100227.44;5018675;28;20034;-85
2023/08/27 05:25:39;;;;;;;1.83;0.55;;;;;;;12.92;100.00;100228.41;5011770;28;20033;-86
2023/08/27 05:28:05;;;;;;;2.33;0.50;;;;;;;12.90;100.00;100236.53;5032471;28;20040;-86
2023/08/27 05:30:30;;;;;;;1.92;0.57;;;;;;;12.88;100.00;100231.38;5009956;28;20041;-87
2023/08/27 05:32:58;;;;;;;3.85;0.57;;;;;;;12.86;100.00;100235.22;5037445;28;20371;-86
2023/08/27 05:35:26;;;;;;;5.40;0.77;;;;;;;12.84;100.00;100232.72;5027871;28;20822;-87
2023/08/27 05:37:51;;;;;;;3.67;0.80;;;;;;;12.83;100.00;100236.38;5032367;28;20037;-86
2023/08/27 05:40:18;;;;;;;2.90;0.57;;;;;;;12.81;100.00;100235.72;5013781;28;20026;-88
2023/08/27 05:42:43;;;;;;;1.80;0.57;;;;;;;12.77;100.00;100237.84;5021202;28;20084;-87
2023/08/27 05:45:09;;;;;;;3.42;0.90;;;;;;;12.76;100.00;100233.56;5013386;28;20033;-88
2023/08/27 05:47:35;;;;;;;6.93;0.80;;;;;;;12.74;100.00;100245.31;5041160;28;20030;-87
2023/08/27 05:50:01;;;;;;;2.03;0.85;;;;;;;12.74;100.00;100242.69;5011608;28;20497;-87
2023/08/27 05:52:29;;;;;;;2.95;0.82;;;;;;;12.73;100.00;100241.00;5013940;28;20481;-87
2023/08/27 05:54:55;;;;;;;3.25;0.75;;;;;;;12.78;100.00;100244.00;5012159;28;20509;-87
2023/08/27 05:57:21;;;;;;;5.03;0.63;;;;;;;12.77;100.00;100237.84;5048111;28;20028;-87
2023/08/27 05:59:46;;;;;;;3.85;0.80;;;;;;;12.79;100.00;100248.28;5000309;28;20048;-88
2023/08/27 06:02:17;;;;;;;2.15;0.50;;;;;;;12.82;100.00;100250.63;5031871;28;20059;-88
2023/08/27 06:04:43;;;;;;;3.60;0.80;;;;;;;12.83;100.00;100246.16;5012071;28;20033;-88
2023/08/27 06:07:09;;;;;;;3.35;0.55;;;;;;;12.85;100.00;100244.19;5032421;28;20080;-87
2023/08/27 06:09:35;;;;;;;2.83;0.52;;;;;;;12.83;100.00;100248.81;5014007;28;20124;-87
2023/08/27 06:12:02;;;;;;;2.88;0.85;;;;;;;12.80;100.00;100241.19;5019272;28;20052;-87
2023/08/27 06:14:28;;;;;;;3.08;0.65;;;;;;;12.80;100.00;100242.00;5018055;28;20043;-88
2023/08/27 06:16:54;;;;;;;3.42;0.55;;;;;;;12.85;100.00;100238.88;5011421;28;20124;-88
2023/08/27 06:19:20;;;;;;;2.92;0.80;;;;;;;12.89;100.00;100240.19;5033570;28;20036;-87
2023/08/27 06:21:47;;;;;;;2.25;0.40;;;;;;;12.93;100.00;100238.88;5005198;28;20148;-87
2023/08/27 06:24:12;;;;;;;2.63;0.50;;;;;;;13.01;100.00;100240.72;5015260;28;20119;-87
2023/08/27 06:26:38;;;;;;;3.50;0.47;;;;;;;13.06;100.00;100237.56;5019991;28;20180;-88
2023/08/27 06:29:05;;;;;;;2.38;0.63;;;;;;;13.04;100.00;100237.72;5016813;28;20440;-87
2023/08/27 06:31:32;;;;;;;0.60;0.55;;;;;;;13.02;100.00;100235.25;5027193;28;20032;-87
2023/08/27 06:33:58;;;;;;;3.33;0.60;;;;;;;13.05;100.00;100236.72;4996106;28;20104;-87
2023/08/27 06:36:24;;;;;;;3.28;0.73;;;;;;;13.07;100.00;100240.03;5035827;28;20561;-86
2023/08/27 06:38:50;;;;;;;2.38;0.50;;;;;;;13.11;100.00;100243.19;5052677;28;20478;-86
2023/08/27 06:41:16;;;;;;;1.75;0.55;;;;;;;13.09;100.00;100239.88;5013657;28;20467;-87
2023/08/27 06:43:45;;;;;;;2.08;0.57;;;;;;;13.08;100.00;100240.84;5039062;28;20036;-87
2023/08/27 06:46:13;;;;;;;0.80;0.47;;;;;;;13.07;100.00;100240.03;4997915;28;20045;-87
2023/08/27 06:48:41;;;;;;;4.18;0.60;;;;;;;13.08;100.00;100244.34;5022555;28;20048;-87
2023/08/27 06:51:07;;;;;;;1.85;0.52;;;;;;;13.12;100.00;100239.53;5029575;28;20029;-87
2023/08/27 06:53:33;;;;;;;2.25;0.60;;;;;;;13.13;100.00;100236.72;5008006;28;20028;-87
2023/08/27 06:55:58;;;;;;;1.67;0.55;;;;;;;13.14;100.00;100237.53;5028169;28;20029;-87
2023/08/27 06:58:24;;;;;;;2.05;0.60;;;;;;;13.27;100.00;100235.22;5000641;28;20038;-87
2023/08/27 07:00:50;;;;;;;1.20;0.57;;;;;;;13.17;100.00;100236.38;5006688;28;20103;-87
2023/08/27 07:03:19;;;;;;;2.10;0.40;;;;;;;13.19;100.00;100234.38;5029276;28;20503;-88
2023/08/27 07:05:45;;;;;;;3.83;0.65;;;;;;;13.19;100.00;100227.25;5011284;28;20044;-86
2023/08/27 07:08:11;;;;;;;2.38;0.70;;;;;;;13.20;100.00;100230.75;5031645;28;20371;-89
2023/08/27 07:10:37;;;;;;;2.70;0.47;;;;;;;13.22;100.00;100229.56;5046828;28;20531;-87
2023/08/27 07:13:04;;;;;;;2.75;0.70;;;;;;;13.24;100.00;100235.56;5064965;28;20552;-87
2023/08/27 07:15:30;;;;;;;2.42;0.50;;;;;;;13.26;100.00;100235.38;5032131;28;20071;-87
2023/08/27 07:17:57;;;;;;;2.00;0.77;;;;;;;13.28;100.00;100236.06;5033866;28;20028;-88
2023/08/27 07:20:23;;;;;;;4.03;1.00;;;;;;;13.33;100.00;100230.25;5029745;28;20037;-87
2023/08/27 07:22:49;;;;;;;3.20;0.80;;;;;;;13.34;100.00;100226.59;5004673;28;20041;-86
2023/08/27 07:25:16;;;;;;;4.80;0.50;;;;;;;13.33;100.00;100230.25;4988339;28;20382;-87
2023/08/27 07:27:42;;;;;;;6.93;0.75;;;;;;;13.36;100.00;100224.59;5028105;28;20496;-87
2023/08/27 07:30:08;;;;;;;1.27;0.60;;;;;;;13.38;100.00;100233.19;5043702;28;20037;-87
2023/08/27 07:32:35;;;;;;;2.58;1.13;;;;;;;13.38;100.00;100236.69;5049956;28;20044;-86
2023/08/27 07:35:01;;;;;;;3.03;0.63;;;;;;;13.40;100.00;100239.19;5000764;28;20365;-87
2023/08/27 07:37:32;;;;;;;3.42;0.90;;;;;;;13.44;100.00;100237.84;5048441;28;20025;-87
2023/08/27 07:39:58;;;;;;;1.50;0.60;;;;;;;13.45;100.00;100236.03;5035226;28;20469;-87
2023/08/27 07:42:24;;;;;;;1.77;0.60;;;;;;;13.44;100.00;100231.72;5046533;28;20052;-86
2023/08/27 07:44:50;;;;;;;3.45;0.60;;;;;;;13.41;100.00;100227.56;5029141;28;20466;-87
2023/08/27 07:47:16;;;;;;;1.20;0.60;;;;;;;13.43;100.00;100230.88;5046375;28;20071;-86
2023/08/27 07:49:42;;;;;;;4.47;0.70;;;;;;;13.41;100.00;100219.59;5031334;28;20060;-87
2023/08/27 07:52:08;;;;;;;6.22;0.68;;;;;;;13.40;100.00;100210.81;5048896;28;20745;-87
2023/08/27 07:54:34;;;;;;;1.38;0.50;;;;;;;13.38;100.00;100209.31;5064235;28;20468;-87
2023/08/27 07:57:00;;;;;;;2.15;0.57;;;;;;;13.43;100.00;100214.94;5037737;28;20033;-87
2023/08/27 07:59:26;;;;;;;2.60;0.40;;;;;;;13.45;100.00;100215.63;5066486;28;20036;-88
2023/08/27 08:01:51;;;;;;;0.68;0.55;;;;;;;13.47;100.00;100202.16;5000252;28;20115;-88
2023/08/27 08:04:17;;;;;;;1.63;0.45;;;;;;;13.49;100.00;100214.28;5047236;28;20430;-88
2023/08/27 08:06:43;;;;;;;2.65;0.70;;;;;;;13.49;100.00;100210.81;5050644;28;20037;-88
2023/08/27 08:09:09;;;;;;;0.77;0.50;;;;;;;13.55;100.00;100206.66;5049243;28;20111;-88
2023/08/27 08:11:35;;;;;;;0.55;0.30;;;;;;;13.57;100.00;100200.19;5033937;28;20427;-87
2023/08/27 08:14:00;;;;;;;0.68;0.50;;;;;;;13.58;100.00;100201.84;5033197;28;20036;-88
2023/08/27 08:16:26;;;;;;;4.63;0.60;;;;;;;13.59;100.00;100205.31;5065974;28;20044;-88
2023/08/27 08:18:52;;;;;;;2.95;0.47;;;;;;;13.61;100.00;100205.97;5016243;28;20079;-87
2023/08/27 08:21:19;;;;;;;2.78;0.57;;;;;;;13.63;100.00;100199.50;5049762;28;20029;-87
2023/08/27 08:23:45;;;;;;;2.00;0.63;;;;;;;13.63;100.00;100199.50;5064645;28;20032;-88
2023/08/27 08:26:11;;;;;;;1.48;0.80;;;;;;;13.62;100.00;100199.66;5045589;28;20028;-86
2023/08/27 08:28:37;;;;;;;0.82;0.50;;;;;;;13.59;100.00;100197.34;5048519;28;20033;-86
2023/08/27 08:31:03;;;;;;;0.85;0.50;;;;;;;13.57;100.00;100194.06;5028296;28;20040;-87
2023/08/27 08:33:29;;;;;;;1.58;0.35;;;;;;;13.57;100.00;100197.53;5030393;28;20040;-86
2023/08/27 08:35:55;;;;;;;1.00;0.60;;;;;;;13.55;100.00;100196.88;5060332;28;20033;-87
2023/08/27 08:38:21;;;;;;;1.52;0.50;;;;;;;13.53;100.00;100204.19;5031537;28;20086;-87
2023/08/27 08:40:51;;;;;;;1.42;0.38;;;;;;;13.51;100.00;100195.53;5031127;28;20626;-87
2023/08/27 08:43:25;;;;;;;2.92;0.30;;;;;;;13.50;100.00;100196.53;5011588;28;20040;-87
2023/08/27 08:46:13;;;;;;;0.45;0.30;;;;;;;13.48;100.00;100196.69;5029864;28;20521;-86
2023/08/27 08:48:41;;;;;;;1.45;0.32;;;;;;;13.48;100.00;100195.84;5028729;28;20064;-87
2023/08/27 08:51:09;;;;;;;1.42;0.40;;;;;;;13.51;100.00;100199.03;5026285;28;20064;-86
2023/08/27 08:53:49;;;;;;;0.80;0.50;;;;;;;13.58;100.00;100191.22;5010465;28;20044;-87
2023/08/27 08:56:24;;;;;;;1.65;0.35;;;;;;;13.63;100.00;100188.88;5029782;28;20400;-87
2023/08/27 08:58:56;;;;;;;1.13;0.30;;;;;;;13.69;100.00;100190.03;5029931;28;20153;-87
2023/08/27 09:01:24;;;;;;;0.60;0.50;;;;;;;13.69;100.00;100195.34;5029420;28;20553;-86
2023/08/27 09:03:51;;;;;;;1.23;0.35;;;;;;;13.73;100.00;100187.84;5030595;28;20080;-87
2023/08/27 09:06:18;;;;;;;1.17;0.50;;;;;;;13.70;100.00;100194.34;5063873;28;20035;-88
2023/08/27 09:08:45;;;;;;;1.65;0.50;;;;;;;13.72;100.00;100194.16;5034204;28;20068;-87
2023/08/27 09:11:11;;;;;;;1.92;0.63;;;;;;;13.77;100.00;100200.63;5051929;28;20039;-87
2023/08/27 09:13:38;;;;;;;1.65;0.40;;;;;;;13.74;100.00;100198.28;5017829;28;20111;-87
2023/08/27 09:16:07;;;;;;;1.75;0.50;;;;;;;13.76;100.00;100192.84;5029673;28;20087;-87
2023/08/27 09:18:34;;;;;;;1.40;0.40;;;;;;;13.72;100.00;100197.66;5033750;28;20045;-86
2023/08/27 09:21:00;;;;;;;1.02;0.38;;;;;;;13.69;100.00;100199.81;5047678;28;20064;-86
2023/08/27 09:23:26;;;;;;;0.70;0.30;;;;;;;13.71;100.00;100197.81;5049389;28;20504;-85
2023/08/27 09:25:53;;;;;;;0.20;0.20;;;;;;;13.75;100.00;100193.81;5064038;28;20061;-85
2023/08/27 09:28:20;;;;;;;1.02;0.28;;;;;;;13.80;100.00;100204.75;5024948;28;20033;-85
2023/08/27 09:30:46;;;;;;;0.50;0.20;;;;;;;13.80;100.00;100201.28;5031500;28;20039;-84
2023/08/27 09:33:11;;;;;;;0.55;0.20;;;;;;;13.80;100.00;100199.44;5005160;28;20040;-87
2023/08/27 09:35:39;;;;;;;0.70;0.20;;;;;;;13.85;100.00;100191.81;5047730;28;20496;-87
2023/08/27 09:38:06;;;;;;;0.52;0.30;;;;;;;13.93;100.00;100190.09;5064989;28;20535;-86
2023/08/27 09:40:32;;;;;;;0.63;0.28;;;;;;;13.97;100.00;100191.41;5040985;28;20120;-87
2023/08/27 09:43:06;;;;;;;0.25;0.25;;;;;;;14.06;100.00;100184.22;5044194;28;20116;-87
2023/08/27 09:45:34;;;;;;;0.75;0.30;;;;;;;14.06;100.00;100182.41;5049123;28;20103;-86
2023/08/27 09:48:00;;;;;;;0.30;0.30;;;;;;;14.09;100.00;100178.56;5028785;28;20053;-86
2023/08/27 09:50:28;;;;;;;1.30;0.30;;;;;;;14.19;100.00;100181.00;5028800;28;20072;-87
2023/08/27 09:53:06;;;;;;;0.40;0.40;;;;;;;14.27;100.00;100178.28;5000052;28;20130;-87
2023/08/27 09:55:37;;;;;;;0.63;0.20;;;;;;;14.29;100.00;100178.09;5034172;28;20069;-87
2023/08/27 09:58:04;;;;;;;0.03;0.03;;;;;;;14.33;100.00;100174.94;5033343;28;20037;-86
2023/08/27 10:00:30;;;;;;;0.10;0.10;;;;;;;14.35;100.00;100166.81;5066611;28;20397;-86
2023/08/27 10:02:56;;;;;;;0.10;0.10;;;;;;;14.36;100.00;100173.75;5032735;28;20107;-85
2023/08/27 10:05:30;;;;;;;0.40;0.10;;;;;;;14.36;100.00;100168.44;5033390;28;20033;-86
2023/08/27 10:07:57;;;;;;;0.10;0.10;;;;;;;14.29;100.00;100170.97;5032224;28;20045;-85
2023/08/27 10:10:23;;;;;;;0.25;0.10;;;;;;;14.30;100.00;100171.81;5034131;28;20040;-86
2023/08/27 10:12:49;;;;;;;0.40;0.10;;;;;;;14.34;100.00;100176.59;5046754;28;20036;-86
2023/08/27 10:15:16;;;;;;;0.63;0.15;;;;;;;14.39;100.00;100168.94;5026352;28;20631;-86
2023/08/27 10:17:43;;;;;;;0.10;0.05;;;;;;;14.41;100.00;100170.56;5073593;28;20033;-86
2023/08/27 10:20:11;;;;;;;0.30;0.10;;;;;;;14.44;100.00;100176.38;5067757;28;20036;-86
2023/08/27 10:22:37;;;;;;;0.75;0.10;;;;;;;14.43;100.00;100168.56;5028360;28;20091;-85
2023/08/27 10:25:04;;;;;;;2.05;0.10;;;;;;;14.45;100.00;100166.53;5034501;28;20044;-86
2023/08/27 10:27:32;;;;;;;0.10;0.10;;;;;;;14.46;100.00;100169.03;5017343;28;20417;-86
2023/08/27 10:29:58;;;;;;;0.10;0.10;;;;;;;14.49;100.00;100166.00;5030794;28;20385;-86
2023/08/27 10:32:24;;;;;;;0.52;0.20;;;;;;;14.55;100.00;100167.16;5025779;28;20111;-86
2023/08/27 10:34:50;;;;;;;2.20;0.17;;;;;;;14.63;100.00;100169.75;5027948;28;20199;-86
2023/08/27 10:37:19;;;;;;;0.13;0.10;;;;;;;14.72;100.00;100164.34;5056754;28;20039;-86
2023/08/27 10:39:47;;;;;;;0.35;0.20;;;;;;;14.74;100.00;100167.66;5049908;28;20092;-85
2023/08/27 10:42:33;;;;;;;0.20;0.10;;;;;;;14.84;100.00;100162.94;5044116;28;20047;-86
2023/08/27 10:45:17;;;;;;;0.20;0.10;;;;;;;14.93;100.00;100154.91;5031294;28;20968;-86
2023/08/27 10:48:04;;;;;;;0.35;0.20;;;;;;;14.96;100.00;100157.19;5016017;28;20477;-86
2023/08/27 10:50:55;;;;;;;0.32;0.20;;;;;;;15.06;100.00;100159.59;5039512;28;20040;-86
2023/08/27 10:53:22;;;;;;;0.20;0.20;;;;;;;15.13;100.00;100158.69;5043824;28;20036;-85
2023/08/27 10:55:51;;;;;;;0.10;0.10;;;;;;;15.19;100.00;100153.66;5009599;28;20033;-86
2023/08/27 10:58:25;;;;;;;0.08;0.03;;;;;;;15.25;100.00;100151.09;5030031;28;20029;-86
2023/08/27 11:01:02;;;;;;;0.10;0.10;;;;;;;15.26;100.00;100154.56;5032349;28;20381;-85
2023/08/27 11:03:53;;;;;;;1.05;0.22;;;;;;;15.25;100.00;100159.09;5050851;28;20128;-86
2023/08/27 11:06:20;;;;;;;0.22;0.20;;;;;;;15.25;100.00;100167.09;5066828;28;20029;-86
2023/08/27 11:08:52;;;;;;;0.10;0.10;;;;;;;15.34;100.00;100149.16;5029953;28;20056;-85
2023/08/27 11:11:26;;;;;;;0.85;0.10;;;;;;;15.36;100.00;100160.47;5051413;28;20032;-87
2023/08/27 11:14:04;;;;;;;0.00;0.00;;;;;;;15.40;100.00;100163.56;5038910;28;20327;-87
2023/08/27 11:16:30;;;;;;;0.20;0.08;;;;;;;15.35;100.00;100164.13;5050231;28;20120;-86